Search for airport 
image banner adimage banner adimage banner ad
image banner ad

IA30 - Kleis

Located in Zwingle, United States

ICAO - IA30, IATA -

Data provided by Airmate  

General information

Coordinates: N42°18'0" W90°45'0"
Elevation is 1050 feet MSL.
Magnetic variation is 01° East
View others Airports in Iowa

Operational data

Special qualification required
Current time UTC:
Current local time:
Weather at : KDBQ - Dubuque Rgnl ( 12 km )
METAR: KDBQ 150853Z AUTO 00000KT 10SM CLR 13/11 A3007 RMK AO2 SLP179 T01330106 50003
TAF: KDBQ 150530Z 1506/1606 VRB03KT P6SM SKC FM151800 02008KT P6SM FEW200 FM160300 07004KT P6SM SKC
View NOTAMs / SUP AIP / TFR affecting this airport [VIEW]
Communications frequencies: [VIEW]

Runways:

RWY identifierQFULength (ft)Width (ft)SurfaceLDA (ft)
08150066GRASS
26150066GRASS

Airport contact information

Address: Zwingle United States

Satellite view of IA30